Terminal Aerodrome Forecast
Issued by NWS

Home | Current Version | Previous Version | Graphics & Text | Print | Product List | Glossary Off
Versions: 1 2 3 4 5 6 7 8 9 10 11 12 13 14

000
FTUS43 KTOP 231100
TAFFOE
TAF
KFOE 231123Z 2312/2412 18008KT P6SM SCT120
     FM231400 19014G22KT P6SM FEW250
     FM240100 18009KT P6SM SCT250=

USA.gov is the U.S. government's official web portal to all federal, state and local government web resources and services.